Latest Coastal Weather Observations for Point Stuart

IDD60701

Issued at 4:31 pm CST Saturday 24 June 2017 (issued every 10 minutes, with the page automatically refreshed every 10 minutes)

About coastal observations | Map of coastal stations | Coastal observations for NT | Marine services | Other Formats
Station Details ID: 014254 Name: POINT STUART Lat: -12.24 Lon: 131.88 Height: 1.0 m
Data from the previous 72 hours. | See also: Recent months at Point Stuart
Date/Time
CST
Temp
°C
Wind Pressure Rain since
9am
mm
Weather Cloud Vis
km
Sea
Height
m
Swell
Dir  Spd
kts
Gust
kts
hPa Trend Height
m
Period
s
Dir
24/04:30pm 29.3 N 6 9 1009.2 - - - - - - - - -
24/04:00pm 30.5 NNE 7 12 1009.5 - - - - - - - - -
24/03:30pm 29.9 NNE 8 11 1009.7 - - - - - - - - -
24/03:00pm 30.4 NE 6 11 1009.9 - - - - - - - - -
24/02:30pm 30.2 NNE 9 13 1010.2 - - - - - - - - -
24/02:00pm 30.0 ENE 8 11 1010.6 - - - - - - - - -
24/06:30am 19.5 ESE 4 5 1012.5 - 0.0 - - - - - - -
24/06:00am 19.7 SE 4 5 1012.3 - 0.0 - - - - - - -
24/05:30am 19.9 SE 4 5 1012.1 - 0.0 - - - - - - -
24/05:00am 20.2 SE 3 4 1012.1 - 0.0 - - - - - - -
24/04:30am 20.3 SSE 2 4 1011.9 - 0.0 - - - - - - -
24/04:00am 20.5 S 3 4 1012.0 - 0.0 - - - - - - -
24/03:30am 21.0 CALM 0 0 1012.0 - 0.0 - - - - - - -
24/03:00am 20.9 CALM 0 3 1012.2 - 0.0 - - - - - - -
24/02:30am 21.5 S 4 5 1012.3 - 0.0 - - - - - - -
24/02:00am 21.7 SSW 5 6 1012.4 - 0.0 - - - - - - -
24/01:30am 22.1 S 3 4 1012.6 - 0.0 - - - - - - -
24/01:00am 22.7 ENE 5 7 1012.6 - 0.0 - - - - - - -
24/12:30am 23.3 NE 6 8 1012.5 - 0.0 - - - - - - -
24/12:00am 23.7 NE 7 8 1012.5 - 0.0 - - - - - - -
 
Date/Time
CST
Temp
°C
Wind Pressure Rain since
9am
mm
Weather Cloud Vis
km
Sea
Height
m
Swell
Dir  Spd
kts
Gust
kts
hPa Trend Height
m
Period
s
Dir
23/11:30pm 23.3 NE 6 7 1012.5 - 0.0 - - - - - - -
23/11:00pm 23.4 NNE 5 6 1012.6 - 0.0 - - - - - - -
23/10:30pm 24.1 NNE 5 7 1012.8 - 0.0 - - - - - - -
23/10:00pm 24.0 NNE 4 7 1012.8 - 0.0 - - - - - - -
23/09:30pm 22.2 N 4 6 1012.6 - 0.0 - - - - - - -
23/09:00pm 21.9 NNE 5 6 1012.3 - 0.0 - - - - - - -
23/08:30pm 22.1 WNW 1 3 1012.0 - 0.0 - - - - - - -
23/08:00pm 23.2 CALM 0 0 1011.8 - 0.0 - - - - - - -
23/07:30pm 23.8 NW 4 5 1011.4 - 0.0 - - - - - - -
23/07:00pm 24.3 NW 4 6 1011.0 - 0.0 - - - - - - -
23/06:30pm 25.9 N 1 4 1010.8 - 0.0 - - - - - - -
23/06:00pm 27.1 N 4 7 1010.6 - 0.0 - - - - - - -
23/05:30pm 28.6 N 5 8 1010.3 - 0.0 - - - - - - -
23/05:00pm 29.4 NNE 6 8 1010.2 - 0.0 - - - - - - -
23/04:30pm 29.7 NE 7 10 1010.1 - 0.0 - - - - - - -
23/04:00pm 30.1 NNE 6 9 1010.1 - 0.0 - - - - - - -
23/03:30pm 31.0 NE 7 10 1010.4 - 0.0 - - - - - - -
23/03:00pm 30.6 NE 6 9 1010.6 - 0.0 - - - - - - -
23/02:30pm 30.3 NE 7 9 1011.0 - 0.0 - - - - - - -
23/02:00pm 30.6 ENE 7 10 1011.5 - 0.0 - - - - - - -
23/01:30pm 30.3 NE 7 10 1011.9 - 0.0 - - - - - - -
23/01:00pm 30.6 NE 7 11 1012.6 - 0.0 - - - - - - -
23/12:30pm 29.9 ENE 8 11 1013.2 - 0.0 - - - - - - -
23/12:00pm 29.2 ENE 9 14 1013.5 - 0.0 - - - - - - -
23/11:30am 29.3 ENE 10 14 1014.1 - 0.0 - - - - - - -
23/11:00am 28.9 E 10 13 1014.4 - 0.0 - - - - - - -
23/10:30am 28.2 ESE 8 11 1014.5 - 0.0 - - - - - - -
23/10:00am 27.1 ESE 9 14 1014.7 - 0.0 - - - - - - -
23/09:30am 26.1 ESE 9 13 1014.9 - 0.0 - - - - - - -
23/09:00am 24.9 ESE 8 10 1014.8 - 0.0 - - - - - - -
23/08:30am 23.1 ESE 5 7 1014.5 - 0.0 - - - - - - -
23/08:00am 21.5 ESE 5 7 1014.2 - 0.0 - - - - - - -
23/07:30am 20.7 ESE 7 9 1014.1 - 0.0 - - - - - - -
23/07:00am 20.0 ESE 5 6 1013.9 - 0.0 - - - - - - -
23/06:30am 19.6 ESE 5 6 1013.6 - 0.0 - - - - - - -
23/06:00am 19.4 SE 3 4 1013.6 - 0.0 - - - - - - -
23/05:30am 19.8 CALM 0 3 1013.2 - 0.0 - - - - - - -
23/05:00am 20.2 CALM 0 0 1013.2 - 0.0 - - - - - - -
23/04:30am 20.8 CALM 0 0 1013.1 - 0.0 - - - - - - -
23/04:00am 20.8 S 2 3 1013.2 - 0.0 - - - - - - -
23/03:30am 21.0 S 3 4 1013.3 - 0.0 - - - - - - -
23/03:00am 21.7 S 3 4 1013.4 - 0.0 - - - - - - -
23/02:30am 21.7 S 3 5 1013.7 - 0.0 - - - - - - -
23/02:00am 21.9 S 4 6 1014.0 - 0.0 - - - - - - -
23/01:30am 22.1 E 3 4 1014.0 - 0.0 - - - - - - -
23/01:00am 22.5 NE 4 5 1014.0 - 0.0 - - - - - - -
23/12:30am 22.4 NE 4 5 1014.1 - 0.0 - - - - - - -
23/12:00am 22.3 NNE 5 6 1014.2 - 0.0 - - - - - - -
 
Date/Time
CST
Temp
°C
Wind Pressure Rain since
9am
mm
Weather Cloud Vis
km
Sea
Height
m
Swell
Dir  Spd
kts
Gust
kts
hPa Trend Height
m
Period
s
Dir
22/11:30pm 20.7 NNE 4 5 1014.3 - 0.0 - - - - - - -
22/11:00pm 21.3 N 1 3 1014.2 - 0.0 - - - - - - -
22/10:30pm 21.2 CALM 0 0 1014.2 - 0.0 - - - - - - -
22/10:00pm 21.6 N 1 5 1014.4 - 0.0 - - - - - - -
22/09:30pm 22.5 CALM 0 0 1014.3 - 0.0 - - - - - - -
22/09:00pm 22.2 CALM 0 0 1014.2 - 0.0 - - - - - - -
22/08:30pm 22.4 N 3 4 1014.0 - 0.0 - - - - - - -
22/08:00pm 23.5 CALM 0 0 1013.5 - 0.0 - - - - - - -
22/07:30pm 23.8 WNW 3 4 1013.1 - 0.0 - - - - - - -
22/07:00pm 24.6 WNW 4 5 1012.8 - 0.0 - - - - - - -
22/06:30pm 25.8 WNW 5 6 1012.4 - 0.0 - - - - - - -
22/06:00pm 27.4 N 2 4 1012.1 - 0.0 - - - - - - -
22/05:30pm 28.8 N 5 7 1011.8 - 0.0 - - - - - - -
22/05:00pm 30.0 N 5 7 1011.6 - 0.0 - - - - - - -
22/04:30pm 30.6 N 4 7 1011.4 - 0.0 - - - - - - -
22/04:00pm 31.4 N 5 8 1011.3 - 0.0 - - - - - - -
22/03:30pm 30.5 N 6 9 1011.5 - 0.0 - - - - - - -
22/03:00pm 31.7 N 5 9 1011.6 - 0.0 - - - - - - -
22/02:30pm 31.3 NE 8 11 1011.9 - 0.0 - - - - - - -
22/02:00pm 31.6 NE 7 13 1012.2 - 0.0 - - - - - - -
22/01:30pm 32.1 NE 8 12 1012.5 - 0.0 - - - - - - -
22/01:00pm 31.3 ENE 9 13 1012.8 - 0.0 - - - - - - -
22/12:30pm 30.8 E 11 14 1013.2 - 0.0 - - - - - - -
22/12:00pm 30.3 E 12 17 1013.7 - 0.0 - - - - - - -
22/11:30am 29.7 E 11 16 1014.0 - 0.0 - - - - - - -
22/11:00am 28.4 E 12 15 1014.5 - 0.0 - - - - - - -
22/10:30am 27.8 E 10 13 1014.9 - 0.0 - - - - - - -
22/10:00am 26.9 E 10 13 1015.0 - 0.0 - - - - - - -
22/09:30am 25.6 ESE 8 10 1015.2 - 0.0 - - - - - - -
22/09:00am 23.7 ESE 8 10 1015.2 - - - - - - - - -
22/08:30am 22.1 ESE 6 7 1014.9 - - - - - - - - -
22/08:00am 20.7 ESE 4 6 1014.7 - - - - - - - - -
22/07:30am 19.0 ESE 4 5 1014.4 - - - - - - - - -
22/07:00am 18.5 ESE 5 7 1014.1 - - - - - - - - -
22/06:30am 18.8 SE 4 5 1013.9 - - - - - - - - -
22/06:00am 18.9 ESE 5 6 1013.7 - - - - - - - - -
22/05:30am 19.6 ESE 5 6 1013.5 - - - - - - - - -
22/05:00am 19.9 ESE 4 5 1013.6 - - - - - - - - -
22/04:30am 20.2 ESE 4 4 1013.4 - - - - - - - - -
22/04:00am 20.1 ESE 3 4 1013.5 - - - - - - - - -
22/03:30am 20.9 SSE 3 4 1013.5 - - - - - - - - -
22/03:00am 20.6 CALM 0 1 1013.6 - - - - - - - - -
22/02:30am 21.4 NE 5 6 1013.7 - - - - - - - - -
22/02:00am 20.5 E 4 5 1013.9 - - - - - - - - -
22/01:30am 20.9 NNE 2 4 1014.1 - - - - - - - - -
22/01:00am 20.8 ESE 3 4 1014.3 - - - - - - - - -
22/12:30am 21.1 ESE 3 4 1014.3 - - - - - - - - -
22/12:00am 21.5 E 4 5 1014.2 - - - - - - - - -
 
Date/Time
CST
Temp
°C
Wind Pressure Rain since
9am
mm
Weather Cloud Vis
km
Sea
Height
m
Swell
Dir  Spd
kts
Gust
kts
hPa Trend Height
m
Period
s
Dir
21/11:30pm 22.1 SE 4 5 1014.3 - - - - - - - - -
21/11:00pm 22.2 SSE 4 5 1014.2 - - - - - - - - -
21/10:30pm 22.4 S 3 4 1014.0 - - - - - - - - -
21/10:00pm 22.9 S 3 4 1013.8 - - - - - - - - -
21/09:30pm 23.3 SSW 3 5 1013.6 - - - - - - - - -
21/09:00pm 23.1 SW 3 4 1013.4 - - - - - - - - -
21/08:30pm 23.8 SSW 3 4 1013.1 - - - - - - - - -
21/08:00pm 24.0 CALM 0 0 1012.8 - - - - - - - - -
21/07:30pm 24.3 W 2 4 1012.6 - - - - - - - - -
21/07:00pm 25.1 W 4 5 1012.2 - - - - - - - - -
21/06:30pm 26.2 W 5 6 1011.7 - - - - - - - - -
21/06:00pm 27.5 NW 4 6 1011.5 - - - - - - - - -
21/05:30pm 29.4 NNW 5 7 1011.1 - - - - - - - - -
21/05:00pm 30.2 NNW 4 7 1010.9 - - - - - - - - -

Other Formats:

Comma delimited format used in spreadsheet applications
http://www.bom.gov.au/fwo/IDD60701/IDD60701.94127.axf

JavaScript Object Notation format (JSON) in row-major order
http://www.bom.gov.au/fwo/IDD60701/IDD60701.94127.json